Sbi Magnum — V7FQ8 — position and weather

sailwx.info

Track history (hours):
 
Tides and Currents Weather Stations Pressure Air Temp Water Temp Dewpoint Dewpoint Depression Visibility Wind Speed Wind Dir Waves Ship Positions

Sbi Magnum

Last reported at 2017-Sep-22 01:55 UTC. Time now 2017-Sep-26 16:39 UTC.
Position N 38°60' E 117°47'.

Length 292 m; draft 8.7 m.

Type: Cargo ship. MMSI: 538005643.

Date/timePositionNaut miles runAvg speedWind from/ knotsBaromVisibWave heightAir tempDewpointWater temp
2017-Sep-22 01:55N 38°60' E 117°47'0 0.0
2017-Sep-22 01:25N 38°60' E 117°47'0 0.0
2017-Sep-22 00:55N 38°60' E 117°47'0 0.0
2017-Sep-22 00:25N 38°60' E 117°47'0 0.0
2017-Sep-21 23:55N 38°60' E 117°47'0 0.0
2017-Sep-21 23:25N 38°60' E 117°47'0 0.0
2017-Sep-21 22:49N 38°60' E 117°47'0 0.0
2017-Sep-21 22:25N 38°60' E 117°47'0 0.0
2017-Sep-21 21:55N 38°60' E 117°47'0 0.0
2017-Sep-21 21:25N 38°60' E 117°47'0 0.0
2017-Sep-21 20:55N 38°60' E 117°47'0 0.0
2017-Sep-21 20:25N 38°60' E 117°47'0 0.0
2017-Sep-21 19:55N 38°60' E 117°47'0 0.0
2017-Sep-21 19:25N 38°60' E 117°47'0 0.0
2017-Sep-21 18:55N 38°60' E 117°47'0 0.0
2017-Sep-21 18:25N 38°60' E 117°47'0 0.0
2017-Sep-21 17:55N 38°60' E 117°47'0 0.0
2017-Sep-21 17:25N 38°60' E 117°47'0 0.0
2017-Sep-21 16:55N 38°60' E 117°47'0 0.0
2017-Sep-21 16:25N 38°60' E 117°47'0 0.0
2017-Sep-21 15:55N 38°60' E 117°47'0 0.0
2017-Sep-21 15:25N 38°60' E 117°47'0 0.0
2017-Sep-21 14:43N 38°60' E 117°47'0 0.0
2017-Sep-21 14:25N 38°60' E 117°47'0 0.0
2017-Sep-21 13:49N 38°60' E 117°47'0 0.0
2017-Sep-21 13:25N 38°60' E 117°47'0 0.0
2017-Sep-21 12:55N 38°60' E 117°47'0 0.0
2017-Sep-21 12:25N 38°60' E 117°47'0 0.0
2017-Sep-21 11:55N 38°60' E 117°47'0 0.0
2017-Sep-21 11:25N 38°60' E 117°47'0 0.0
2017-Sep-21 10:49N 38°60' E 117°47'0 0.0
2017-Sep-21 10:25N 38°60' E 117°47'0 0.0
2017-Sep-21 09:55N 38°60' E 117°47'0 0.0
2017-Sep-21 09:25N 38°60' E 117°47'0 0.0
2017-Sep-21 08:55N 38°60' E 117°47'0 0.0
2017-Sep-21 08:25N 38°60' E 117°47'0 0.0
2017-Sep-21 07:55N 38°60' E 117°47'0 0.0
2017-Sep-21 07:25N 38°60' E 117°47'0 0.0
2017-Sep-21 06:37N 38°60' E 117°47'0 0.0
2017-Sep-21 06:25N 38°60' E 117°47'0 0.0
2017-Sep-21 05:55N 38°60' E 117°47'0 0.0
2017-Sep-21 05:25N 38°60' E 117°47'0 0.0
2017-Sep-21 04:55N 38°60' E 117°47'0 0.0
2017-Sep-21 04:25N 38°60' E 117°47'0 0.0
2017-Sep-21 03:55N 38°60' E 117°47'0 0.0
2017-Sep-21 03:25N 38°60' E 117°47'1 1.3
2017-Sep-21 03:00N 38°59' E 117°47'3 6.5
2017-Sep-21 02:30N 38°58' E 117°51'712.8
2017-Sep-21 02:00N 38°56' E 117°59'610.1
2017-Sep-21 01:26N 38°56' E 118°06'6 5.1
2017-Sep-21 00:15N 38°52' E 118°13'2 5.6
2017-Sep-20 23:54N 38°52' E 118°15'3 8.1
2017-Sep-20 23:30N 38°51' E 118°19'18113.2
2017-Sep-20 09:49N 38°06' E 122°03'27715.4
2017-Sep-19 15:48N 33°46' E 123°60'620.8
2017-Sep-19 15:30N 33°39' E 124°01'1120.9
2017-Sep-19 15:00N 33°29' E 124°02'3520.1
2017-Sep-19 13:16N 32°54' E 124°05'1119.2
2017-Sep-19 12:41N 32°43' E 124°03'619.7
2017-Sep-19 12:22N 32°36' E 124°03'1319.4
2017-Sep-19 11:42N 32°24' E 124°04'1518.8
2017-Sep-19 10:53N 32°08' E 124°04'18418.2
2017-Sep-19 00:47N 29°11' E 123°11'64016.9
2017-Sep-17 10:58N 22°19' E 114°07'  
2017-Sep-13 02:35N 01°15' E 104°05'216.5
2017-Sep-13 02:26N 01°14' E 104°02'715.4
2017-Sep-13 02:00N 01°13' E 103°56'713.6
2017-Sep-13 01:30N 01°10' E 103°49'713.7
2017-Sep-13 00:59N 01°06' E 103°44'714.1
2017-Sep-13 00:30N 01°04' E 103°37'916.7
2017-Sep-12 23:59N 01°08' E 103°29'817.0
2017-Sep-12 23:30N 01°12' E 103°23'916.9
2017-Sep-12 22:58N 01°18' E 103°16'  
Track history (hours):
 
Tides and Currents Weather Stations Pressure Air Temp Water Temp Dewpoint Dewpoint Depression Visibility Wind Speed Wind Dir Waves Ship Positions

Sbi Magnum

Last reported at 2017-Sep-22 01:55 UTC. Time now 2017-Sep-26 16:39 UTC.
Position N 38°60' E 117°47'.

Length 292 m; draft 8.7 m.

Type: Cargo ship. MMSI: 538005643.

Date/timePositionNaut miles runAvg speedWind from/ knotsBaromVisibWave heightAir tempDewpointWater temp
2017-Sep-22 01:55N 38°60' E 117°47'0 0.0
2017-Sep-22 01:25N 38°60' E 117°47'0 0.0
2017-Sep-22 00:55N 38°60' E 117°47'0 0.0
2017-Sep-22 00:25N 38°60' E 117°47'0 0.0
2017-Sep-21 23:55N 38°60' E 117°47'0 0.0
2017-Sep-21 23:25N 38°60' E 117°47'0 0.0
2017-Sep-21 22:49N 38°60' E 117°47'0 0.0
2017-Sep-21 22:25N 38°60' E 117°47'0 0.0
2017-Sep-21 21:55N 38°60' E 117°47'0 0.0
2017-Sep-21 21:25N 38°60' E 117°47'0 0.0
2017-Sep-21 20:55N 38°60' E 117°47'0 0.0
2017-Sep-21 20:25N 38°60' E 117°47'0 0.0
2017-Sep-21 19:55N 38°60' E 117°47'0 0.0
2017-Sep-21 19:25N 38°60' E 117°47'0 0.0
2017-Sep-21 18:55N 38°60' E 117°47'0 0.0
2017-Sep-21 18:25N 38°60' E 117°47'0 0.0
2017-Sep-21 17:55N 38°60' E 117°47'0 0.0
2017-Sep-21 17:25N 38°60' E 117°47'0 0.0
2017-Sep-21 16:55N 38°60' E 117°47'0 0.0
2017-Sep-21 16:25N 38°60' E 117°47'0 0.0
2017-Sep-21 15:55N 38°60' E 117°47'0 0.0
2017-Sep-21 15:25N 38°60' E 117°47'0 0.0
2017-Sep-21 14:43N 38°60' E 117°47'0 0.0
2017-Sep-21 14:25N 38°60' E 117°47'0 0.0
2017-Sep-21 13:49N 38°60' E 117°47'0 0.0
2017-Sep-21 13:25N 38°60' E 117°47'0 0.0
2017-Sep-21 12:55N 38°60' E 117°47'0 0.0
2017-Sep-21 12:25N 38°60' E 117°47'0 0.0
2017-Sep-21 11:55N 38°60' E 117°47'0 0.0
2017-Sep-21 11:25N 38°60' E 117°47'0 0.0
2017-Sep-21 10:49N 38°60' E 117°47'0 0.0
2017-Sep-21 10:25N 38°60' E 117°47'0 0.0
2017-Sep-21 09:55N 38°60' E 117°47'0 0.0
2017-Sep-21 09:25N 38°60' E 117°47'0 0.0
2017-Sep-21 08:55N 38°60' E 117°47'0 0.0
2017-Sep-21 08:25N 38°60' E 117°47'0 0.0
2017-Sep-21 07:55N 38°60' E 117°47'0 0.0
2017-Sep-21 07:25N 38°60' E 117°47'0 0.0
2017-Sep-21 06:37N 38°60' E 117°47'0 0.0
2017-Sep-21 06:25N 38°60' E 117°47'0 0.0
2017-Sep-21 05:55N 38°60' E 117°47'0 0.0
2017-Sep-21 05:25N 38°60' E 117°47'0 0.0
2017-Sep-21 04:55N 38°60' E 117°47'0 0.0
2017-Sep-21 04:25N 38°60' E 117°47'0 0.0
2017-Sep-21 03:55N 38°60' E 117°47'0 0.0
2017-Sep-21 03:25N 38°60' E 117°47'1 1.3
2017-Sep-21 03:00N 38°59' E 117°47'3 6.5
2017-Sep-21 02:30N 38°58' E 117°51'712.8
2017-Sep-21 02:00N 38°56' E 117°59'610.1
2017-Sep-21 01:26N 38°56' E 118°06'6 5.1
2017-Sep-21 00:15N 38°52' E 118°13'2 5.6
2017-Sep-20 23:54N 38°52' E 118°15'3 8.1
2017-Sep-20 23:30N 38°51' E 118°19'18113.2
2017-Sep-20 09:49N 38°06' E 122°03'27715.4
2017-Sep-19 15:48N 33°46' E 123°60'620.8
2017-Sep-19 15:30N 33°39' E 124°01'1120.9
2017-Sep-19 15:00N 33°29' E 124°02'3520.1
2017-Sep-19 13:16N 32°54' E 124°05'1119.2
2017-Sep-19 12:41N 32°43' E 124°03'619.7
2017-Sep-19 12:22N 32°36' E 124°03'1319.4
2017-Sep-19 11:42N 32°24' E 124°04'1518.8
2017-Sep-19 10:53N 32°08' E 124°04'18418.2
2017-Sep-19 00:47N 29°11' E 123°11'64016.9
2017-Sep-17 10:58N 22°19' E 114°07'  
2017-Sep-13 02:35N 01°15' E 104°05'216.5
2017-Sep-13 02:26N 01°14' E 104°02'715.4
2017-Sep-13 02:00N 01°13' E 103°56'713.6
2017-Sep-13 01:30N 01°10' E 103°49'713.7
2017-Sep-13 00:59N 01°06' E 103°44'714.1
2017-Sep-13 00:30N 01°04' E 103°37'916.7
2017-Sep-12 23:59N 01°08' E 103°29'817.0
2017-Sep-12 23:30N 01°12' E 103°23'916.9
2017-Sep-12 22:58N 01°18' E 103°16'  

Dump ship's entire track history